aviador You're here:

KIPJ Decoded Metar

LINCOLNTON in NC, USA
Report Time2017-10-17 20:10:00
UTC Time2017-10-17 20:25:00
Flight Rules vfr VFR
Wind030° at 07 kt
W.Decomp.*RWY 05: 6.8 kt HW 1.7 kt LCW
W.Rank030° ranks 9
Current wind is above 030° avg. (5.5)
Visibility9999 m
Phenomena:N/A
Clouds:N/A
Expected CloudBase > 6,400 ft AGL from Temp-Dew spread
CeilingNone
Temp18°C (ISA +5)
Dew Point02°C (34% RH)
AAT13.8°C
QNH1026 hPa
Density Alt1,096 ft
Elevation876 ft
Report Wrong Elevation
Raw Report
METAR KIPJ 172010Z AUTO 03007KT 10SM CLR 18/02 A3029 RMK AO2 T01810019=

Extra information for KIPJ:More info

Metar Taf Metar & Taf Last 4 Metars F.Rules Stats Wind Profile Meteogram Temp Stats Airport Information Weather charts Add Link Nearby VenuesMetar ALERT Operation Metar Decoded Social comments

AIRNAV info for KIPJ